sensor_id;sensor_type;location;lat;lon;timestamp;P1;durP1;ratioP1;P2;durP2;ratioP2
3211;SDS011;1618;47.056;15.472;2023-08-07T00:02:55;17.40;;;16.60;;
3211;SDS011;1618;47.056;15.472;2023-08-07T00:05:25;17.50;;;16.70;;
3211;SDS011;1618;47.056;15.472;2023-08-07T00:08:02;16.93;;;16.13;;
3211;SDS011;1618;47.056;15.472;2023-08-07T00:10:42;18.10;;;17.20;;
3211;SDS011;1618;47.056;15.472;2023-08-07T00:16:10;18.70;;;17.70;;
3211;SDS011;1618;47.056;15.472;2023-08-07T00:18:39;18.33;;;17.43;;
3211;SDS011;1618;47.056;15.472;2023-08-07T00:21:07;18.50;;;17.60;;
3211;SDS011;1618;47.056;15.472;2023-08-07T00:23:35;16.10;;;15.40;;
3211;SDS011;1618;47.056;15.472;2023-08-07T00:26:02;14.40;;;13.80;;
3211;SDS011;1618;47.056;15.472;2023-08-07T00:28:30;14.20;;;13.60;;
3211;SDS011;1618;47.056;15.472;2023-08-07T00:30:57;14.30;;;13.70;;
3211;SDS011;1618;47.056;15.472;2023-08-07T00:33:27;15.50;;;14.80;;
3211;SDS011;1618;47.056;15.472;2023-08-07T00:35:56;15.30;;;14.60;;
3211;SDS011;1618;47.056;15.472;2023-08-07T00:38:25;15.60;;;14.90;;
3211;SDS011;1618;47.056;15.472;2023-08-07T00:41:10;17.13;;;16.33;;
3211;SDS011;1618;47.056;15.472;2023-08-07T00:43:39;16.30;;;15.50;;
3211;SDS011;1618;47.056;15.472;2023-08-07T00:46:06;16.13;;;15.43;;
3211;SDS011;1618;47.056;15.472;2023-08-07T00:48:37;16.13;;;15.40;;
3211;SDS011;1618;47.056;15.472;2023-08-07T00:51:05;15.40;;;14.70;;
3211;SDS011;1618;47.056;15.472;2023-08-07T00:53:38;16.40;;;15.60;;
3211;SDS011;1618;47.056;15.472;2023-08-07T00:56:11;15.40;;;14.70;;
3211;SDS011;1618;47.056;15.472;2023-08-07T00:58:38;14.70;;;14.10;;
3211;SDS011;1618;47.056;15.472;2023-08-07T01:01:07;13.20;;;12.70;;
3211;SDS011;1618;47.056;15.472;2023-08-07T01:03:38;12.80;;;12.30;;
3211;SDS011;1618;47.056;15.472;2023-08-07T01:06:06;12.80;;;12.30;;
3211;SDS011;1618;47.056;15.472;2023-08-07T01:08:34;13.17;;;12.60;;
3211;SDS011;1618;47.056;15.472;2023-08-07T01:11:07;12.70;;;12.20;;
3211;SDS011;1618;47.056;15.472;2023-08-07T01:13:40;12.60;;;12.10;;
3211;SDS011;1618;47.056;15.472;2023-08-07T01:16:10;13.00;;;12.50;;
3211;SDS011;1618;47.056;15.472;2023-08-07T01:18:42;14.57;;;13.97;;
3211;SDS011;1618;47.056;15.472;2023-08-07T01:21:16;14.63;;;14.03;;
3211;SDS011;1618;47.056;15.472;2023-08-07T01:23:47;14.50;;;13.90;;
3211;SDS011;1618;47.056;15.472;2023-08-07T01:26:14;14.07;;;13.47;;
3211;SDS011;1618;47.056;15.472;2023-08-07T01:28:42;13.40;;;12.80;;
3211;SDS011;1618;47.056;15.472;2023-08-07T01:31:16;12.27;;;11.77;;
3211;SDS011;1618;47.056;15.472;2023-08-07T01:33:51;12.53;;;12.03;;
3211;SDS011;1618;47.056;15.472;2023-08-07T01:36:30;12.80;;;12.30;;
3211;SDS011;1618;47.056;15.472;2023-08-07T01:39:00;13.03;;;12.53;;
3211;SDS011;1618;47.056;15.472;2023-08-07T01:41:30;13.13;;;12.63;;
3211;SDS011;1618;47.056;15.472;2023-08-07T01:43:58;12.63;;;12.13;;
3211;SDS011;1618;47.056;15.472;2023-08-07T01:46:27;13.40;;;12.80;;
3211;SDS011;1618;47.056;15.472;2023-08-07T01:48:55;12.37;;;11.87;;
3211;SDS011;1618;47.056;15.472;2023-08-07T01:51:22;12.00;;;11.50;;
3211;SDS011;1618;47.056;15.472;2023-08-07T01:53:55;13.80;;;13.20;;
3211;SDS011;1618;47.056;15.472;2023-08-07T01:56:25;14.10;;;13.50;;
3211;SDS011;1618;47.056;15.472;2023-08-07T01:58:54;14.10;;;13.50;;
3211;SDS011;1618;47.056;15.472;2023-08-07T02:01:22;13.60;;;13.00;;
3211;SDS011;1618;47.056;15.472;2023-08-07T02:03:51;13.07;;;12.57;;
3211;SDS011;1618;47.056;15.472;2023-08-07T02:06:20;12.60;;;12.10;;
3211;SDS011;1618;47.056;15.472;2023-08-07T02:08:48;13.30;;;12.80;;
3211;SDS011;1618;47.056;15.472;2023-08-07T02:11:16;13.10;;;12.60;;
3211;SDS011;1618;47.056;15.472;2023-08-07T02:13:48;13.30;;;12.80;;
3211;SDS011;1618;47.056;15.472;2023-08-07T02:16:16;13.20;;;12.70;;
3211;SDS011;1618;47.056;15.472;2023-08-07T02:18:45;12.63;;;12.13;;
3211;SDS011;1618;47.056;15.472;2023-08-07T02:21:14;12.30;;;11.80;;
3211;SDS011;1618;47.056;15.472;2023-08-07T02:23:46;13.37;;;12.77;;
3211;SDS011;1618;47.056;15.472;2023-08-07T02:26:20;14.50;;;13.90;;
3211;SDS011;1618;47.056;15.472;2023-08-07T02:28:49;14.70;;;14.10;;
3211;SDS011;1618;47.056;15.472;2023-08-07T02:31:17;13.70;;;13.10;;
3211;SDS011;1618;47.056;15.472;2023-08-07T02:33:44;13.50;;;12.90;;
3211;SDS011;1618;47.056;15.472;2023-08-07T02:36:12;14.50;;;13.90;;
3211;SDS011;1618;47.056;15.472;2023-08-07T02:38:42;13.80;;;13.20;;
3211;SDS011;1618;47.056;15.472;2023-08-07T02:41:11;13.07;;;12.57;;
3211;SDS011;1618;47.056;15.472;2023-08-07T02:43:39;12.63;;;12.13;;
3211;SDS011;1618;47.056;15.472;2023-08-07T02:46:10;12.90;;;12.40;;
3211;SDS011;1618;47.056;15.472;2023-08-07T02:48:40;13.00;;;12.50;;
3211;SDS011;1618;47.056;15.472;2023-08-07T02:51:08;13.10;;;12.60;;
3211;SDS011;1618;47.056;15.472;2023-08-07T02:53:38;13.33;;;12.83;;
3211;SDS011;1618;47.056;15.472;2023-08-07T02:56:06;13.90;;;13.30;;
3211;SDS011;1618;47.056;15.472;2023-08-07T02:58:35;14.00;;;13.40;;
3211;SDS011;1618;47.056;15.472;2023-08-07T03:01:12;13.53;;;13.00;;
3211;SDS011;1618;47.056;15.472;2023-08-07T03:03:39;12.63;;;12.13;;
3211;SDS011;1618;47.056;15.472;2023-08-07T03:06:08;12.90;;;12.40;;
3211;SDS011;1618;47.056;15.472;2023-08-07T03:08:36;12.20;;;11.70;;
3211;SDS011;1618;47.056;15.472;2023-08-07T03:11:04;12.00;;;11.50;;
3211;SDS011;1618;47.056;15.472;2023-08-07T03:13:32;11.20;;;10.80;;
3211;SDS011;1618;47.056;15.472;2023-08-07T03:16:00;11.90;;;11.40;;
3211;SDS011;1618;47.056;15.472;2023-08-07T03:18:29;12.60;;;12.10;;
3211;SDS011;1618;47.056;15.472;2023-08-07T03:20:57;12.90;;;12.40;;
3211;SDS011;1618;47.056;15.472;2023-08-07T03:23:27;13.20;;;12.67;;
3211;SDS011;1618;47.056;15.472;2023-08-07T03:26:05;12.93;;;12.43;;
3211;SDS011;1618;47.056;15.472;2023-08-07T03:28:39;12.90;;;12.40;;
3211;SDS011;1618;47.056;15.472;2023-08-07T03:31:07;15.50;;;14.90;;
3211;SDS011;1618;47.056;15.472;2023-08-07T03:33:43;15.20;;;14.60;;
3211;SDS011;1618;47.056;15.472;2023-08-07T03:36:11;15.30;;;14.70;;
3211;SDS011;1618;47.056;15.472;2023-08-07T03:38:40;16.27;;;15.57;;
3211;SDS011;1618;47.056;15.472;2023-08-07T03:41:10;16.80;;;16.10;;
3211;SDS011;1618;47.056;15.472;2023-08-07T03:43:39;16.57;;;15.87;;
3211;SDS011;1618;47.056;15.472;2023-08-07T03:46:07;14.50;;;13.90;;
3211;SDS011;1618;47.056;15.472;2023-08-07T03:48:35;15.13;;;14.53;;
3211;SDS011;1618;47.056;15.472;2023-08-07T03:51:04;14.70;;;14.10;;
3211;SDS011;1618;47.056;15.472;2023-08-07T03:53:33;14.80;;;14.20;;
3211;SDS011;1618;47.056;15.472;2023-08-07T03:56:00;15.30;;;14.70;;
3211;SDS011;1618;47.056;15.472;2023-08-07T03:58:29;17.00;;;16.30;;
3211;SDS011;1618;47.056;15.472;2023-08-07T04:00:57;14.80;;;14.20;;
3211;SDS011;1618;47.056;15.472;2023-08-07T04:03:25;13.80;;;13.20;;
3211;SDS011;1618;47.056;15.472;2023-08-07T04:05:52;14.00;;;13.40;;
3211;SDS011;1618;47.056;15.472;2023-08-07T04:08:23;13.77;;;13.20;;
3211;SDS011;1618;47.056;15.472;2023-08-07T04:10:59;12.90;;;12.40;;
3211;SDS011;1618;47.056;15.472;2023-08-07T04:13:29;13.70;;;13.10;;
3211;SDS011;1618;47.056;15.472;2023-08-07T04:16:00;13.80;;;13.20;;
3211;SDS011;1618;47.056;15.472;2023-08-07T04:18:30;13.87;;;13.27;;
3211;SDS011;1618;47.056;15.472;2023-08-07T04:20:58;13.80;;;13.20;;
3211;SDS011;1618;47.056;15.472;2023-08-07T04:23:28;14.63;;;14.03;;
3211;SDS011;1618;47.056;15.472;2023-08-07T04:25:56;14.30;;;13.70;;
3211;SDS011;1618;47.056;15.472;2023-08-07T04:28:25;14.10;;;13.50;;
3211;SDS011;1618;47.056;15.472;2023-08-07T04:30:53;13.55;;;12.95;;
3211;SDS011;1618;47.056;15.472;2023-08-07T04:33:21;14.20;;;13.60;;
3211;SDS011;1618;47.056;15.472;2023-08-07T04:35:49;14.53;;;13.93;;
3211;SDS011;1618;47.056;15.472;2023-08-07T04:38:23;14.33;;;13.73;;
3211;SDS011;1618;47.056;15.472;2023-08-07T04:40:52;14.63;;;14.03;;
3211;SDS011;1618;47.056;15.472;2023-08-07T04:43:27;16.13;;;15.43;;
3211;SDS011;1618;47.056;15.472;2023-08-07T04:45:56;16.50;;;15.70;;
3211;SDS011;1618;47.056;15.472;2023-08-07T04:48:24;17.10;;;16.30;;
3211;SDS011;1618;47.056;15.472;2023-08-07T04:50:51;16.43;;;15.73;;
3211;SDS011;1618;47.056;15.472;2023-08-07T04:53:21;14.87;;;14.23;;
3211;SDS011;1618;47.056;15.472;2023-08-07T04:55:49;13.70;;;13.10;;
3211;SDS011;1618;47.056;15.472;2023-08-07T04:58:18;13.50;;;12.90;;
3211;SDS011;1618;47.056;15.472;2023-08-07T05:00:46;13.80;;;13.20;;
3211;SDS011;1618;47.056;15.472;2023-08-07T05:03:18;16.40;;;15.70;;
3211;SDS011;1618;47.056;15.472;2023-08-07T05:05:46;17.00;;;16.20;;
3211;SDS011;1618;47.056;15.472;2023-08-07T05:08:14;15.83;;;15.13;;
3211;SDS011;1618;47.056;15.472;2023-08-07T05:10:42;15.40;;;14.70;;
3211;SDS011;1618;47.056;15.472;2023-08-07T05:13:10;15.70;;;15.00;;
3211;SDS011;1618;47.056;15.472;2023-08-07T05:15:40;16.50;;;15.80;;
3211;SDS011;1618;47.056;15.472;2023-08-07T05:18:07;15.90;;;15.20;;
3211;SDS011;1618;47.056;15.472;2023-08-07T05:20:38;15.10;;;14.40;;
3211;SDS011;1618;47.056;15.472;2023-08-07T05:23:07;14.70;;;14.10;;
3211;SDS011;1618;47.056;15.472;2023-08-07T05:25:36;15.20;;;14.50;;
3211;SDS011;1618;47.056;15.472;2023-08-07T05:28:03;16.10;;;15.40;;
3211;SDS011;1618;47.056;15.472;2023-08-07T05:30:36;16.10;;;15.40;;
3211;SDS011;1618;47.056;15.472;2023-08-07T05:33:06;16.40;;;15.70;;
3211;SDS011;1618;47.056;15.472;2023-08-07T05:35:35;17.60;;;16.80;;
3211;SDS011;1618;47.056;15.472;2023-08-07T05:38:03;18.20;;;17.30;;
3211;SDS011;1618;47.056;15.472;2023-08-07T05:40:32;18.70;;;17.90;;
3211;SDS011;1618;47.056;15.472;2023-08-07T05:43:01;18.93;;;18.03;;
3211;SDS011;1618;47.056;15.472;2023-08-07T05:45:29;19.37;;;18.47;;
3211;SDS011;1618;47.056;15.472;2023-08-07T05:47:56;21.40;;;20.30;;
3211;SDS011;1618;47.056;15.472;2023-08-07T05:50:25;22.57;;;21.37;;
3211;SDS011;1618;47.056;15.472;2023-08-07T05:52:53;24.03;;;22.70;;
3211;SDS011;1618;47.056;15.472;2023-08-07T05:55:21;24.90;;;23.50;;
3211;SDS011;1618;47.056;15.472;2023-08-07T05:57:50;23.60;;;22.30;;
3211;SDS011;1618;47.056;15.472;2023-08-07T06:00:17;22.00;;;20.90;;
3211;SDS011;1618;47.056;15.472;2023-08-07T06:02:45;20.40;;;19.40;;
3211;SDS011;1618;47.056;15.472;2023-08-07T06:05:15;18.20;;;17.30;;
3211;SDS011;1618;47.056;15.472;2023-08-07T06:07:48;19.60;;;18.67;;
3211;SDS011;1618;47.056;15.472;2023-08-07T06:10:16;21.60;;;20.50;;
3211;SDS011;1618;47.056;15.472;2023-08-07T06:12:45;20.40;;;19.40;;
3211;SDS011;1618;47.056;15.472;2023-08-07T06:15:13;20.33;;;19.33;;
3211;SDS011;1618;47.056;15.472;2023-08-07T06:17:41;20.00;;;19.00;;
3211;SDS011;1618;47.056;15.472;2023-08-07T06:20:09;19.70;;;18.70;;
3211;SDS011;1618;47.056;15.472;2023-08-07T06:22:40;20.80;;;19.80;;
3211;SDS011;1618;47.056;15.472;2023-08-07T06:25:09;20.30;;;19.30;;
3211;SDS011;1618;47.056;15.472;2023-08-07T06:27:36;20.93;;;19.93;;
3211;SDS011;1618;47.056;15.472;2023-08-07T06:30:09;20.43;;;19.43;;
3211;SDS011;1618;47.056;15.472;2023-08-07T06:32:40;21.77;;;20.67;;
3211;SDS011;1618;47.056;15.472;2023-08-07T06:35:08;22.00;;;20.90;;
3211;SDS011;1618;47.056;15.472;2023-08-07T06:37:36;25.00;;;23.60;;
3211;SDS011;1618;47.056;15.472;2023-08-07T06:40:04;25.30;;;23.80;;
3211;SDS011;1618;47.056;15.472;2023-08-07T06:42:33;25.20;;;23.80;;
3211;SDS011;1618;47.056;15.472;2023-08-07T06:45:03;25.10;;;23.70;;
3211;SDS011;1618;47.056;15.472;2023-08-07T06:47:32;27.43;;;25.73;;
3211;SDS011;1618;47.056;15.472;2023-08-07T06:49:59;27.40;;;25.70;;
3211;SDS011;1618;47.056;15.472;2023-08-07T06:52:28;26.60;;;25.00;;
3211;SDS011;1618;47.056;15.472;2023-08-07T06:54:57;27.70;;;25.90;;
3211;SDS011;1618;47.056;15.472;2023-08-07T06:57:26;29.47;;;27.37;;
3211;SDS011;1618;47.056;15.472;2023-08-07T06:59:57;29.00;;;27.00;;
3211;SDS011;1618;47.056;15.472;2023-08-07T07:02:24;26.40;;;24.50;;
3211;SDS011;1618;47.056;15.472;2023-08-07T07:04:51;28.30;;;26.40;;
3211;SDS011;1618;47.056;15.472;2023-08-07T07:07:21;28.50;;;26.60;;
3211;SDS011;1618;47.056;15.472;2023-08-07T07:09:49;29.43;;;27.53;;
3211;SDS011;1618;47.056;15.472;2023-08-07T07:12:16;28.40;;;26.50;;
3211;SDS011;1618;47.056;15.472;2023-08-07T07:14:45;29.37;;;27.37;;
3211;SDS011;1618;47.056;15.472;2023-08-07T07:17:15;29.37;;;27.37;;
3211;SDS011;1618;47.056;15.472;2023-08-07T07:19:42;28.60;;;26.70;;
3211;SDS011;1618;47.056;15.472;2023-08-07T07:22:09;29.90;;;27.90;;
3211;SDS011;1618;47.056;15.472;2023-08-07T07:24:38;29.40;;;27.40;;
3211;SDS011;1618;47.056;15.472;2023-08-07T07:30:09;30.40;;;28.30;;
3211;SDS011;1618;47.056;15.472;2023-08-07T07:32:39;29.90;;;27.70;;
3211;SDS011;1618;47.056;15.472;2023-08-07T07:35:07;29.53;;;27.33;;
3211;SDS011;1618;47.056;15.472;2023-08-07T07:37:37;29.90;;;27.70;;
3211;SDS011;1618;47.056;15.472;2023-08-07T07:40:16;32.53;;;30.13;;
3211;SDS011;1618;47.056;15.472;2023-08-07T07:42:59;31.57;;;29.17;;
3211;SDS011;1618;47.056;15.472;2023-08-07T07:45:44;30.90;;;28.50;;
3211;SDS011;1618;47.056;15.472;2023-08-07T07:48:14;31.10;;;28.70;;
3211;SDS011;1618;47.056;15.472;2023-08-07T07:50:41;32.40;;;29.90;;
3211;SDS011;1618;47.056;15.472;2023-08-07T07:53:09;31.87;;;29.37;;
3211;SDS011;1618;47.056;15.472;2023-08-07T07:55:46;32.80;;;30.20;;
3211;SDS011;1618;47.056;15.472;2023-08-07T07:58:14;32.80;;;30.20;;
3211;SDS011;1618;47.056;15.472;2023-08-07T08:00:41;33.63;;;30.97;;
3211;SDS011;1618;47.056;15.472;2023-08-07T08:03:10;33.57;;;30.87;;
3211;SDS011;1618;47.056;15.472;2023-08-07T08:05:42;33.50;;;30.80;;
3211;SDS011;1618;47.056;15.472;2023-08-07T08:08:12;35.30;;;32.40;;
3211;SDS011;1618;47.056;15.472;2023-08-07T08:13:53;34.60;;;31.80;;
3211;SDS011;1618;47.056;15.472;2023-08-07T08:16:21;35.50;;;32.70;;
3211;SDS011;1618;47.056;15.472;2023-08-07T08:18:49;34.57;;;31.87;;
3211;SDS011;1618;47.056;15.472;2023-08-07T08:21:19;35.07;;;32.37;;
3211;SDS011;1618;47.056;15.472;2023-08-07T08:23:46;35.20;;;32.40;;
3211;SDS011;1618;47.056;15.472;2023-08-07T08:26:15;35.30;;;32.50;;
3211;SDS011;1618;47.056;15.472;2023-08-07T08:28:48;33.60;;;30.80;;
3211;SDS011;1618;47.056;15.472;2023-08-07T08:34:02;33.50;;;30.80;;
3211;SDS011;1618;47.056;15.472;2023-08-07T08:36:31;34.20;;;31.40;;
3211;SDS011;1618;47.056;15.472;2023-08-07T08:39:00;35.00;;;32.20;;
3211;SDS011;1618;47.056;15.472;2023-08-07T08:41:28;35.33;;;32.53;;
3211;SDS011;1618;47.056;15.472;2023-08-07T08:44:09;34.47;;;31.57;;
3211;SDS011;1618;47.056;15.472;2023-08-07T08:46:44;35.70;;;32.90;;
3211;SDS011;1618;47.056;15.472;2023-08-07T08:49:20;35.97;;;33.27;;
3211;SDS011;1618;47.056;15.472;2023-08-07T08:51:57;36.37;;;33.57;;
3211;SDS011;1618;47.056;15.472;2023-08-07T08:54:25;36.30;;;33.50;;
3211;SDS011;1618;47.056;15.472;2023-08-07T08:57:01;36.53;;;33.63;;
3211;SDS011;1618;47.056;15.472;2023-08-07T08:59:31;36.97;;;34.07;;
3211;SDS011;1618;47.056;15.472;2023-08-07T09:02:00;36.17;;;33.27;;
3211;SDS011;1618;47.056;15.472;2023-08-07T09:04:30;35.90;;;33.10;;
3211;SDS011;1618;47.056;15.472;2023-08-07T09:07:10;35.70;;;32.90;;
3211;SDS011;1618;47.056;15.472;2023-08-07T09:09:43;36.80;;;33.90;;
3211;SDS011;1618;47.056;15.472;2023-08-07T09:12:15;36.27;;;33.40;;
3211;SDS011;1618;47.056;15.472;2023-08-07T09:14:43;36.33;;;33.53;;
3211;SDS011;1618;47.056;15.472;2023-08-07T09:17:13;35.37;;;32.57;;
3211;SDS011;1618;47.056;15.472;2023-08-07T09:19:42;36.40;;;33.70;;
3211;SDS011;1618;47.056;15.472;2023-08-07T09:22:11;35.50;;;32.60;;
3211;SDS011;1618;47.056;15.472;2023-08-07T09:24:38;37.87;;;34.97;;
3211;SDS011;1618;47.056;15.472;2023-08-07T09:27:06;37.23;;;34.33;;
3211;SDS011;1618;47.056;15.472;2023-08-07T09:29:36;35.67;;;32.87;;
3211;SDS011;1618;47.056;15.472;2023-08-07T09:32:06;35.40;;;32.80;;
3211;SDS011;1618;47.056;15.472;2023-08-07T09:34:36;35.57;;;32.77;;
3211;SDS011;1618;47.056;15.472;2023-08-07T09:37:05;35.77;;;32.97;;
3211;SDS011;1618;47.056;15.472;2023-08-07T09:39:37;35.13;;;32.20;;
3211;SDS011;1618;47.056;15.472;2023-08-07T09:42:04;36.10;;;33.10;;
3211;SDS011;1618;47.056;15.472;2023-08-07T09:44:35;37.40;;;34.30;;
3211;SDS011;1618;47.056;15.472;2023-08-07T09:47:14;38.17;;;35.17;;
3211;SDS011;1618;47.056;15.472;2023-08-07T09:49:43;36.47;;;33.47;;
3211;SDS011;1618;47.056;15.472;2023-08-07T09:52:14;38.10;;;35.10;;
3211;SDS011;1618;47.056;15.472;2023-08-07T09:54:45;38.27;;;35.27;;
3211;SDS011;1618;47.056;15.472;2023-08-07T09:57:12;35.97;;;32.97;;
3211;SDS011;1618;47.056;15.472;2023-08-07T09:59:42;36.63;;;33.63;;
3211;SDS011;1618;47.056;15.472;2023-08-07T10:02:12;35.90;;;32.90;;
3211;SDS011;1618;47.056;15.472;2023-08-07T10:04:40;37.00;;;34.00;;
3211;SDS011;1618;47.056;15.472;2023-08-07T10:07:08;37.50;;;34.50;;
3211;SDS011;1618;47.056;15.472;2023-08-07T10:09:37;37.80;;;34.80;;
3211;SDS011;1618;47.056;15.472;2023-08-07T10:12:06;36.57;;;33.67;;
3211;SDS011;1618;47.056;15.472;2023-08-07T10:14:34;38.30;;;35.20;;
3211;SDS011;1618;47.056;15.472;2023-08-07T10:17:02;37.77;;;34.87;;
3211;SDS011;1618;47.056;15.472;2023-08-07T10:19:30;38.30;;;35.30;;
3211;SDS011;1618;47.056;15.472;2023-08-07T10:21:59;37.13;;;34.03;;
3211;SDS011;1618;47.056;15.472;2023-08-07T10:24:27;38.67;;;35.47;;
3211;SDS011;1618;47.056;15.472;2023-08-07T10:26:56;36.53;;;33.43;;
3211;SDS011;1618;47.056;15.472;2023-08-07T10:29:27;36.27;;;33.17;;
3211;SDS011;1618;47.056;15.472;2023-08-07T10:31:56;37.13;;;34.03;;
3211;SDS011;1618;47.056;15.472;2023-08-07T10:34:28;35.70;;;32.60;;
3211;SDS011;1618;47.056;15.472;2023-08-07T10:36:55;35.77;;;32.67;;
3211;SDS011;1618;47.056;15.472;2023-08-07T10:39:30;35.40;;;32.30;;
3211;SDS011;1618;47.056;15.472;2023-08-07T10:41:57;36.53;;;33.43;;
3211;SDS011;1618;47.056;15.472;2023-08-07T10:44:27;34.90;;;31.90;;
3211;SDS011;1618;47.056;15.472;2023-08-07T10:47:05;35.10;;;32.10;;
3211;SDS011;1618;47.056;15.472;2023-08-07T10:49:34;35.70;;;32.60;;
3211;SDS011;1618;47.056;15.472;2023-08-07T10:52:04;36.47;;;33.40;;
3211;SDS011;1618;47.056;15.472;2023-08-07T10:54:36;36.73;;;33.53;;
3211;SDS011;1618;47.056;15.472;2023-08-07T10:57:12;37.23;;;34.03;;
3211;SDS011;1618;47.056;15.472;2023-08-07T10:59:43;36.70;;;33.50;;
3211;SDS011;1618;47.056;15.472;2023-08-07T11:02:21;38.40;;;35.13;;
3211;SDS011;1618;47.056;15.472;2023-08-07T11:04:51;38.00;;;34.80;;
3211;SDS011;1618;47.056;15.472;2023-08-07T11:07:29;37.07;;;34.03;;
3211;SDS011;1618;47.056;15.472;2023-08-07T11:10:01;36.73;;;33.63;;
3211;SDS011;1618;47.056;15.472;2023-08-07T11:12:34;35.47;;;32.47;;
3211;SDS011;1618;47.056;15.472;2023-08-07T11:15:01;36.90;;;33.70;;
3211;SDS011;1618;47.056;15.472;2023-08-07T11:17:30;35.13;;;32.03;;
3211;SDS011;1618;47.056;15.472;2023-08-07T11:19:58;35.27;;;32.17;;
3211;SDS011;1618;47.056;15.472;2023-08-07T11:22:27;35.20;;;32.10;;
3211;SDS011;1618;47.056;15.472;2023-08-07T11:24:56;37.30;;;34.10;;
3211;SDS011;1618;47.056;15.472;2023-08-07T11:27:25;37.27;;;34.03;;
3211;SDS011;1618;47.056;15.472;2023-08-07T11:29:53;36.30;;;33.20;;
3211;SDS011;1618;47.056;15.472;2023-08-07T11:32:27;36.10;;;33.00;;
3211;SDS011;1618;47.056;15.472;2023-08-07T11:35:01;36.17;;;33.07;;
3211;SDS011;1618;47.056;15.472;2023-08-07T11:37:32;35.43;;;32.33;;
3211;SDS011;1618;47.056;15.472;2023-08-07T11:40:14;35.00;;;32.00;;
3211;SDS011;1618;47.056;15.472;2023-08-07T11:42:42;35.70;;;32.60;;
3211;SDS011;1618;47.056;15.472;2023-08-07T11:45:10;34.90;;;31.87;;
3211;SDS011;1618;47.056;15.472;2023-08-07T11:47:37;35.60;;;32.40;;
3211;SDS011;1618;47.056;15.472;2023-08-07T11:50:07;35.60;;;32.40;;
3211;SDS011;1618;47.056;15.472;2023-08-07T11:52:41;35.97;;;32.87;;
3211;SDS011;1618;47.056;15.472;2023-08-07T11:55:15;36.23;;;33.03;;
3211;SDS011;1618;47.056;15.472;2023-08-07T11:57:45;37.00;;;33.80;;
3211;SDS011;1618;47.056;15.472;2023-08-07T12:00:24;37.03;;;33.83;;
3211;SDS011;1618;47.056;15.472;2023-08-07T12:02:58;37.53;;;34.33;;
3211;SDS011;1618;47.056;15.472;2023-08-07T12:05:27;36.90;;;33.67;;
3211;SDS011;1618;47.056;15.472;2023-08-07T12:07:55;37.43;;;34.13;;
3211;SDS011;1618;47.056;15.472;2023-08-07T12:10:27;37.43;;;34.23;;
3211;SDS011;1618;47.056;15.472;2023-08-07T12:13:01;36.83;;;33.63;;
3211;SDS011;1618;47.056;15.472;2023-08-07T12:18:18;37.33;;;34.13;;
3211;SDS011;1618;47.056;15.472;2023-08-07T12:20:54;37.07;;;33.83;;
3211;SDS011;1618;47.056;15.472;2023-08-07T12:23:23;37.10;;;33.90;;
3211;SDS011;1618;47.056;15.472;2023-08-07T12:25:51;37.40;;;34.17;;
3211;SDS011;1618;47.056;15.472;2023-08-07T12:28:19;36.80;;;33.60;;
3211;SDS011;1618;47.056;15.472;2023-08-07T12:30:50;37.27;;;34.17;;
3211;SDS011;1618;47.056;15.472;2023-08-07T12:33:17;36.50;;;33.40;;
3211;SDS011;1618;47.056;15.472;2023-08-07T12:35:50;36.97;;;33.87;;
3211;SDS011;1618;47.056;15.472;2023-08-07T12:38:20;37.00;;;33.90;;
3211;SDS011;1618;47.056;15.472;2023-08-07T12:40:47;36.50;;;33.40;;
3211;SDS011;1618;47.056;15.472;2023-08-07T12:43:14;36.17;;;33.07;;
3211;SDS011;1618;47.056;15.472;2023-08-07T12:45:44;36.53;;;33.43;;
3211;SDS011;1618;47.056;15.472;2023-08-07T12:48:11;35.90;;;32.80;;
3211;SDS011;1618;47.056;15.472;2023-08-07T12:50:40;36.63;;;33.53;;
3211;SDS011;1618;47.056;15.472;2023-08-07T12:53:07;36.40;;;33.30;;
3211;SDS011;1618;47.056;15.472;2023-08-07T12:55:42;36.00;;;32.90;;
3211;SDS011;1618;47.056;15.472;2023-08-07T12:58:16;36.50;;;33.50;;
3211;SDS011;1618;47.056;15.472;2023-08-07T13:00:52;36.20;;;33.20;;
3211;SDS011;1618;47.056;15.472;2023-08-07T13:03:20;36.10;;;33.00;;
3211;SDS011;1618;47.056;15.472;2023-08-07T13:05:48;36.00;;;32.90;;
3211;SDS011;1618;47.056;15.472;2023-08-07T13:08:16;35.73;;;32.63;;
3211;SDS011;1618;47.056;15.472;2023-08-07T13:10:55;33.80;;;30.60;;
3211;SDS011;1618;47.056;15.472;2023-08-07T13:13:28;33.63;;;30.43;;
3211;SDS011;1618;47.056;15.472;2023-08-07T13:15:58;33.50;;;30.30;;
3211;SDS011;1618;47.056;15.472;2023-08-07T13:18:26;32.87;;;29.77;;
3211;SDS011;1618;47.056;15.472;2023-08-07T13:20:55;33.73;;;30.53;;
3211;SDS011;1618;47.056;15.472;2023-08-07T13:23:22;32.50;;;29.40;;
3211;SDS011;1618;47.056;15.472;2023-08-07T13:25:51;35.10;;;32.10;;
3211;SDS011;1618;47.056;15.472;2023-08-07T13:28:20;33.03;;;30.03;;
3211;SDS011;1618;47.056;15.472;2023-08-07T13:30:52;32.17;;;29.17;;
3211;SDS011;1618;47.056;15.472;2023-08-07T13:33:22;35.03;;;31.93;;
3211;SDS011;1618;47.056;15.472;2023-08-07T13:35:49;34.67;;;31.67;;
3211;SDS011;1618;47.056;15.472;2023-08-07T13:38:18;34.13;;;30.93;;
3211;SDS011;1618;47.056;15.472;2023-08-07T13:40:46;34.23;;;31.03;;
3211;SDS011;1618;47.056;15.472;2023-08-07T13:43:14;35.30;;;32.30;;
3211;SDS011;1618;47.056;15.472;2023-08-07T13:45:45;34.83;;;31.87;;
3211;SDS011;1618;47.056;15.472;2023-08-07T13:48:14;35.03;;;31.83;;
3211;SDS011;1618;47.056;15.472;2023-08-07T13:50:41;34.37;;;31.27;;
3211;SDS011;1618;47.056;15.472;2023-08-07T13:53:08;35.70;;;32.67;;
3211;SDS011;1618;47.056;15.472;2023-08-07T13:55:38;34.07;;;30.97;;
3211;SDS011;1618;47.056;15.472;2023-08-07T13:58:06;35.33;;;32.43;;
3211;SDS011;1618;47.056;15.472;2023-08-07T14:00:35;36.07;;;33.07;;
3211;SDS011;1618;47.056;15.472;2023-08-07T14:03:07;34.50;;;31.20;;
3211;SDS011;1618;47.056;15.472;2023-08-07T14:05:36;36.07;;;32.90;;
3211;SDS011;1618;47.056;15.472;2023-08-07T14:08:04;37.40;;;34.30;;
3211;SDS011;1618;47.056;15.472;2023-08-07T14:10:32;34.77;;;31.57;;
3211;SDS011;1618;47.056;15.472;2023-08-07T14:13:01;35.77;;;32.47;;
3211;SDS011;1618;47.056;15.472;2023-08-07T14:15:29;36.43;;;33.23;;
3211;SDS011;1618;47.056;15.472;2023-08-07T14:17:56;36.00;;;32.90;;
3211;SDS011;1618;47.056;15.472;2023-08-07T14:20:25;36.33;;;33.33;;
3211;SDS011;1618;47.056;15.472;2023-08-07T14:22:54;33.40;;;30.20;;
3211;SDS011;1618;47.056;15.472;2023-08-07T14:25:22;37.90;;;34.70;;
3211;SDS011;1618;47.056;15.472;2023-08-07T14:27:50;36.83;;;33.63;;
3211;SDS011;1618;47.056;15.472;2023-08-07T14:30:18;36.80;;;33.60;;
3211;SDS011;1618;47.056;15.472;2023-08-07T14:32:45;36.47;;;33.37;;
3211;SDS011;1618;47.056;15.472;2023-08-07T14:35:13;37.13;;;34.03;;
3211;SDS011;1618;47.056;15.472;2023-08-07T14:37:45;39.13;;;36.03;;
3211;SDS011;1618;47.056;15.472;2023-08-07T14:40:14;37.30;;;34.20;;
3211;SDS011;1618;47.056;15.472;2023-08-07T14:42:42;36.60;;;33.60;;
3211;SDS011;1618;47.056;15.472;2023-08-07T14:45:11;37.53;;;34.23;;
3211;SDS011;1618;47.056;15.472;2023-08-07T14:47:40;36.50;;;33.30;;
3211;SDS011;1618;47.056;15.472;2023-08-07T14:50:07;36.07;;;32.97;;
3211;SDS011;1618;47.056;15.472;2023-08-07T14:52:35;36.07;;;32.97;;
3211;SDS011;1618;47.056;15.472;2023-08-07T14:55:05;36.60;;;33.50;;
3211;SDS011;1618;47.056;15.472;2023-08-07T14:57:32;37.00;;;33.80;;
3211;SDS011;1618;47.056;15.472;2023-08-07T15:00:00;35.70;;;32.50;;
3211;SDS011;1618;47.056;15.472;2023-08-07T15:02:28;35.20;;;32.00;;
3211;SDS011;1618;47.056;15.472;2023-08-07T15:04:57;35.40;;;32.30;;